Time;durP1;ratioP1;P1;durP2;ratioP2;P2;SDS_P1;SDS_P2;PMS_P1;PMS_P2;Temp;Humidity;BMP_temperature;BMP_pressure;BME280_temperature;BME280_humidity;BME280_pressure;Samples;Min_cycle;Max_cycle;Signal;HPM_P1;HPM_P2
2021/03/08 00:00:31;;;;;;;35.85;13.80;;;3.20;99.90;;;;;;5033545;28;20084;-74
2021/03/08 00:03:00;;;;;;;39.65;14.73;;;3.20;99.90;;;;;;5034329;28;20480;-74
2021/03/08 00:05:26;;;;;;;37.80;14.23;;;3.20;99.90;;;;;;5034030;28;20104;-74
2021/03/08 00:07:52;;;;;;;35.90;14.60;;;3.30;99.90;;;;;;5034480;28;20495;-74
2021/03/08 00:10:19;;;;;;;40.20;14.82;;;3.30;99.90;;;;;;5034270;28;20056;-74
2021/03/08 00:12:46;;;;;;;39.78;13.65;;;3.30;99.90;;;;;;5032151;28;20038;-73
2021/03/08 00:15:13;;;;;;;36.63;13.90;;;3.30;99.90;;;;;;5032985;28;20021;-74
2021/03/08 00:17:41;;;;;;;36.60;13.73;;;3.40;99.90;;;;;;5090611;22;20079;-73
2021/03/08 00:20:16;;;;;;;36.28;13.98;;;3.30;99.90;;;;;;5074028;28;20035;-73
2021/03/08 00:22:43;;;;;;;38.90;14.20;;;3.40;99.90;;;;;;5073812;28;20024;-73
2021/03/08 00:25:11;;;;;;;39.17;14.85;;;3.40;99.90;;;;;;5055925;28;20021;-73
2021/03/08 00:27:37;;;;;;;35.15;13.90;;;3.40;99.90;;;;;;5073959;28;20031;-74
2021/03/08 00:30:04;;;;;;;43.70;15.50;;;3.50;99.90;;;;;;5074362;28;20364;-73
2021/03/08 00:32:30;;;;;;;44.28;15.30;;;3.40;99.90;;;;;;5073758;28;20055;-73
2021/03/08 00:34:55;;;;;;;37.85;14.15;;;3.50;99.90;;;;;;5074163;28;20021;-73
2021/03/08 00:37:21;;;;;;;38.28;14.15;;;3.50;99.90;;;;;;5056433;28;20021;-73
2021/03/08 00:39:46;;;;;;;40.80;14.52;;;3.40;99.90;;;;;;5088858;22;20384;-73
2021/03/08 00:42:12;;;;;;;35.50;13.25;;;3.40;99.90;;;;;;5056000;28;20024;-73
2021/03/08 00:44:37;;;;;;;36.67;13.80;;;3.40;99.90;;;;;;5055821;28;20452;-73
2021/03/08 00:47:04;;;;;;;31.48;13.98;;;3.40;99.90;;;;;;5074270;28;20024;-74
2021/03/08 00:49:29;;;;;;;35.50;13.05;;;3.40;99.90;;;;;;5073510;28;20041;-74
2021/03/08 00:51:55;;;;;;;37.35;14.23;;;3.50;99.90;;;;;;5069667;28;20049;-74
2021/03/08 00:54:21;;;;;;;38.78;14.95;;;3.50;99.90;;;;;;5036031;28;20574;-74
2021/03/08 00:56:46;;;;;;;34.22;13.43;;;3.50;99.90;;;;;;5053862;28;20122;-74
2021/03/08 00:59:12;;;;;;;37.00;15.13;;;3.50;99.90;;;;;;5056998;28;20018;-74
2021/03/08 01:01:37;;;;;;;33.97;12.68;;;3.50;99.90;;;;;;5046258;28;20028;-74
2021/03/08 01:04:03;;;;;;;37.95;14.07;;;3.90;99.90;;;;;;5055483;28;20029;-74
2021/03/08 01:06:29;;;;;;;38.15;14.00;;;3.50;99.90;;;;;;5052533;28;20078;-74
2021/03/08 01:08:54;;;;;;;35.88;13.50;;;3.50;99.90;;;;;;5059698;28;20555;-74
2021/03/08 01:11:20;;;;;;;38.97;14.45;;;3.50;99.90;;;;;;5069590;28;20021;-74
2021/03/08 01:13:45;;;;;;;34.28;14.48;;;3.50;99.90;;;;;;5057854;28;20186;-73
2021/03/08 01:16:11;;;;;;;34.70;13.48;;;3.50;99.90;;;;;;5060478;28;20037;-73
2021/03/08 01:18:36;;;;;;;34.90;13.55;;;3.40;99.90;;;;;;5057619;28;20464;-73
2021/03/08 01:21:02;;;;;;;40.55;14.65;;;3.50;99.90;;;;;;5039439;28;20114;-73
2021/03/08 01:23:28;;;;;;;41.80;14.30;;;3.50;99.90;;;;;;5057754;28;20094;-74
2021/03/08 01:25:53;;;;;;;34.17;12.93;;;3.40;99.90;;;;;;5059423;28;20051;-73
2021/03/08 01:28:19;;;;;;;33.65;13.02;;;3.40;99.90;;;;;;5043720;28;20052;-73
2021/03/08 01:30:45;;;;;;;37.80;13.80;;;3.50;99.90;;;;;;5059683;22;20041;-73
2021/03/08 01:33:11;;;;;;;37.45;15.32;;;3.50;99.90;;;;;;5019372;28;20031;-73
2021/03/08 01:35:39;;;;;;;39.47;14.88;;;3.50;99.90;;;;;;5037151;28;20036;-73
2021/03/08 01:38:05;;;;;;;33.63;13.55;;;3.50;99.90;;;;;;5029144;28;20020;-73
2021/03/08 01:40:32;;;;;;;37.05;14.10;;;3.50;99.90;;;;;;5000276;28;20027;-74
2021/03/08 01:42:58;;;;;;;38.25;14.57;;;3.50;99.90;;;;;;5017497;28;20026;-73
2021/03/08 01:45:24;;;;;;;37.88;14.68;;;3.40;99.90;;;;;;5039573;23;20072;-73
2021/03/08 01:47:51;;;;;;;42.15;15.18;;;3.50;99.90;;;;;;5054727;28;20025;-73
2021/03/08 01:50:31;;;;;;;40.25;14.95;;;3.50;99.90;;;;;;5049211;28;20021;-73
2021/03/08 01:52:58;;;;;;;36.58;14.18;;;3.40;99.90;;;;;;5056674;28;20055;-73
2021/03/08 01:55:25;;;;;;;35.22;13.63;;;3.50;99.90;;;;;;5055167;28;20029;-73
2021/03/08 01:57:51;;;;;;;37.10;13.93;;;3.50;99.90;;;;;;5055379;28;20017;-73
2021/03/08 02:00:17;;;;;;;42.83;15.63;;;3.50;99.90;;;;;;5050381;28;20078;-73
2021/03/08 02:02:43;;;;;;;37.88;13.93;;;3.50;99.90;;;;;;5056767;28;20029;-73
2021/03/08 02:05:13;;;;;;;37.65;14.05;;;3.60;99.90;;;;;;5052890;28;20020;-73
2021/03/08 02:07:39;;;;;;;37.92;14.63;;;3.60;99.90;;;;;;5036557;28;20025;-74
2021/03/08 02:10:10;;;;;;;39.97;15.35;;;3.60;99.90;;;;;;5038359;28;20025;-73
2021/03/08 02:12:47;;;;;;;39.25;14.48;;;3.60;99.90;;;;;;5054821;22;20053;-74
2021/03/08 02:15:42;;;;;;;37.05;14.02;;;3.60;99.90;;;;;;5064912;22;20071;-74
2021/03/08 02:18:15;;;;;;;33.72;13.70;;;3.60;99.90;;;;;;5057174;28;20074;-73
2021/03/08 02:21:05;;;;;;;45.20;15.73;;;3.60;99.90;;;;;;5075974;28;20025;-74
2021/03/08 02:23:52;;;;;;;37.03;13.20;;;3.60;99.90;;;;;;5076214;28;20051;-74
2021/03/08 02:26:31;;;;;;;44.60;15.55;;;3.60;99.90;;;;;;5075752;28;20036;-73
2021/03/08 02:29:24;;;;;;;37.00;13.82;;;3.60;99.90;;;;;;5076475;28;20031;-73
2021/03/08 02:31:53;;;;;;;35.67;13.50;;;3.60;99.90;;;;;;5075022;28;20083;-74
2021/03/08 02:34:46;;;;;;;36.95;13.80;;;3.60;99.90;;;;;;5076181;28;20495;-73
2021/03/08 02:37:17;;;;;;;36.05;14.35;;;3.60;99.90;;;;;;5058325;28;20024;-74
2021/03/08 02:39:47;;;;;;;38.10;13.52;;;3.60;99.90;;;;;;5057601;28;20070;-74
2021/03/08 02:42:20;;;;;;;32.92;13.10;;;3.60;99.90;;;;;;5075473;28;20025;-73
2021/03/08 02:44:48;;;;;;;34.58;13.20;;;3.60;99.90;;;;;;5057604;28;20028;-74
2021/03/08 02:47:17;;;;;;;36.45;13.95;;;3.60;99.90;;;;;;5090638;22;20016;-74
2021/03/08 02:49:46;;;;;;;33.70;13.20;;;3.60;99.90;;;;;;5057748;28;20025;-74
2021/03/08 02:52:13;;;;;;;35.92;13.68;;;3.60;99.90;;;;;;5090953;22;20055;-74
2021/03/08 02:57:09;;;;;;;42.05;15.57;;;3.70;99.90;;;;;;5014540;28;20096;-74
2021/03/08 02:59:44;;;;;;;38.75;14.85;;;3.70;99.90;;;;;;5014733;28;20095;-74
2021/03/08 03:02:11;;;;;;;38.75;14.27;;;3.70;99.90;;;;;;5016499;28;20097;-74
2021/03/08 03:04:39;;;;;;;32.05;12.95;;;3.60;99.90;;;;;;5014795;28;20077;-73
2021/03/08 03:07:07;;;;;;;32.83;13.95;;;3.60;99.90;;;;;;5014115;28;20088;-73
2021/03/08 03:09:35;;;;;;;36.58;14.38;;;3.70;99.90;;;;;;5015579;28;20515;-74
2021/03/08 03:12:01;;;;;;;39.35;15.68;;;3.60;99.90;;;;;;5015381;28;20029;-73
2021/03/08 03:14:29;;;;;;;33.95;13.68;;;3.60;99.90;;;;;;5015292;28;20065;-73
2021/03/08 03:17:05;;;;;;;42.23;14.70;;;3.60;99.90;;;;;;5014285;28;20022;-75
2021/03/08 03:19:34;;;;;;;34.13;13.73;;;3.60;99.90;;;;;;5015022;28;20481;-73
2021/03/08 03:22:01;;;;;;;30.45;13.00;;;3.60;99.90;;;;;;5013746;28;20030;-74
2021/03/08 03:24:28;;;;;;;37.50;13.60;;;3.60;99.90;;;;;;5014828;28;20018;-75
2021/03/08 03:26:55;;;;;;;40.60;15.00;;;3.60;99.90;;;;;;5015391;28;20091;-74
2021/03/08 03:29:21;;;;;;;35.08;13.35;;;3.60;99.90;;;;;;5042446;22;20045;-73
2021/03/08 03:31:47;;;;;;;35.78;14.25;;;3.60;99.90;;;;;;5035103;28;20022;-74
2021/03/08 03:34:13;;;;;;;40.47;14.27;;;3.60;99.90;;;;;;5016933;28;20029;-74
2021/03/08 03:36:40;;;;;;;34.90;13.52;;;3.70;99.90;;;;;;5017119;28;20396;-74
2021/03/08 03:39:09;;;;;;;36.42;14.10;;;3.70;99.90;;;;;;5049438;22;20045;-73
2021/03/08 03:41:34;;;;;;;41.60;14.27;;;3.70;99.90;;;;;;5091709;22;20082;31
2021/03/08 03:44:02;;;;;;;33.10;13.95;;;1.20;99.90;;;;;;5071814;28;20091;-74
2021/03/08 03:46:28;;;;;;;35.95;13.00;;;3.80;99.90;;;;;;5074599;28;20021;-74
2021/03/08 03:48:53;;;;;;;36.63;14.07;;;3.80;99.90;;;;;;5075327;28;20029;-74
2021/03/08 03:51:20;;;;;;;44.35;15.13;;;3.90;99.90;;;;;;5090304;22;20511;-74
2021/03/08 03:53:46;;;;;;;36.35;13.85;;;3.80;99.90;;;;;;5056545;28;20460;-74
2021/03/08 03:56:15;;;;;;;38.00;13.82;;;3.80;99.90;;;;;;5074602;28;20111;-74
2021/03/08 03:58:53;;;;;;;33.63;12.35;;;3.80;99.90;;;;;;5074709;28;20024;-74
2021/03/08 04:01:31;;;;;;;36.05;14.60;;;3.70;99.90;;;;;;5073477;28;20043;-73
2021/03/08 04:04:04;;;;;;;37.53;14.10;;;3.80;99.90;;;;;;5069448;28;20025;-73
2021/03/08 04:06:52;;;;;;;37.60;14.25;;;3.80;99.90;;;;;;5047110;28;20071;-73
2021/03/08 04:09:22;;;;;;;37.42;14.20;;;3.70;99.90;;;;;;5066795;28;20029;-74
2021/03/08 04:11:53;;;;;;;46.15;14.43;;;3.80;99.90;;;;;;5036474;28;20056;-73
2021/03/08 04:14:22;;;;;;;34.45;13.18;;;3.80;99.90;;;;;;5054500;28;20017;-73
2021/03/08 04:16:50;;;;;;;35.58;13.10;;;3.80;99.90;;;;;;5035949;28;20115;-73
2021/03/08 04:19:20;;;;;;;33.00;12.93;;;3.70;99.90;;;;;;5065177;28;20020;-74
2021/03/08 04:21:48;;;;;;;41.47;14.98;;;3.70;99.90;;;;;;5073815;28;20059;-74
2021/03/08 04:24:16;;;;;;;30.63;12.73;;;3.70;99.90;;;;;;5067526;28;20091;-73
2021/03/08 04:26:41;;;;;;;33.50;13.65;;;3.70;99.90;;;;;;5035979;28;20372;-73
2021/03/08 04:29:08;;;;;;;34.58;14.02;;;3.70;99.90;;;;;;5059614;28;20074;-74
2021/03/08 04:31:34;;;;;;;35.47;14.02;;;3.80;99.90;;;;;;5068492;28;20399;-74
2021/03/08 04:34:04;;;;;;;37.15;14.43;;;3.80;99.90;;;;;;5054886;28;20021;-75
2021/03/08 04:36:31;;;;;;;35.75;14.07;;;3.70;99.90;;;;;;5034041;28;20029;-74
2021/03/08 04:38:57;;;;;;;36.90;14.25;;;3.80;99.90;;;;;;5038411;28;20021;-74
2021/03/08 04:41:26;;;;;;;36.72;14.57;;;3.70;99.90;;;;;;5066474;28;20032;-74
2021/03/08 04:43:53;;;;;;;37.67;14.07;;;3.70;99.90;;;;;;5055448;28;20016;-74
2021/03/08 04:46:19;;;;;;;36.50;13.98;;;3.70;99.90;;;;;;5043497;28;20032;-74
2021/03/08 04:48:45;;;;;;;37.33;13.68;;;3.70;99.90;;;;;;5057443;28;20111;-73
2021/03/08 04:51:11;;;;;;;35.33;13.30;;;3.70;99.90;;;;;;5073523;28;20063;-74
2021/03/08 04:53:37;;;;;;;42.58;14.82;;;3.70;99.90;;;;;;5068978;28;20387;-74
2021/03/08 04:58:31;;;;;;;38.65;14.52;;;3.80;99.90;;;;;;5052196;28;20037;-74
2021/03/08 05:00:58;;;;;;;33.25;14.45;;;3.80;99.90;;;;;;5054327;28;20020;-74
2021/03/08 05:03:27;;;;;;;35.28;13.85;;;3.80;99.90;;;;;;5053933;28;20033;-74
2021/03/08 05:05:56;;;;;;;38.83;14.38;;;3.80;99.90;;;;;;5036112;28;20025;-74
2021/03/08 05:08:25;;;;;;;35.28;13.82;;;3.80;99.90;;;;;;5248628;22;20392;-73
2021/03/08 05:10:52;;;;;;;35.72;14.30;;;3.70;99.90;;;;;;5092307;28;20023;-73
2021/03/08 05:13:20;;;;;;;38.53;13.85;;;3.70;99.90;;;;;;5093433;28;20020;-73
2021/03/08 05:15:45;;;;;;;33.25;14.18;;;3.70;99.90;;;;;;5092449;28;20027;-73
2021/03/08 05:18:12;;;;;;;35.67;13.57;;;3.70;99.90;;;;;;5093227;28;20084;-73
2021/03/08 05:20:38;;;;;;;39.00;13.85;;;3.70;99.90;;;;;;5094116;28;20020;-73
2021/03/08 05:23:04;;;;;;;39.88;14.05;;;3.70;99.90;;;;;;5074237;28;20111;-73
2021/03/08 05:25:31;;;;;;;31.95;14.07;;;3.80;99.90;;;;;;5078844;28;20066;-74
2021/03/08 05:27:58;;;;;;;34.47;13.27;;;3.80;99.90;;;;;;5093686;28;20044;-74
2021/03/08 05:30:27;;;;;;;42.38;14.38;;;3.80;99.90;;;;;;5074387;28;20056;-73
2021/03/08 05:32:54;;;;;;;;;;;3.80;99.90;;;;;;5073878;28;20028;-73
2021/03/08 05:35:23;;;;;;;35.30;12.70;;;3.80;99.90;;;;;;5073563;28;19969;-74
2021/03/08 05:37:49;;;;;;;34.83;12.60;;;3.90;99.90;;;;;;5073029;28;20107;-73
2021/03/08 05:40:21;;;;;;;38.92;14.25;;;3.80;99.90;;;;;;5073512;28;20025;-73
2021/03/08 05:42:52;;;;;;;33.90;13.52;;;3.90;99.90;;;;;;5081220;28;20110;-73
2021/03/08 05:45:27;;;;;;;37.10;14.15;;;3.80;99.90;;;;;;5074191;28;20032;-74
2021/03/08 05:47:58;;;;;;;43.15;14.30;;;3.80;99.90;;;;;;5091168;28;20031;-74
2021/03/08 05:50:48;;;;;;;38.97;13.82;;;3.90;99.90;;;;;;5071827;28;20028;-74
2021/03/08 05:53:49;;;;;;;37.83;13.73;;;3.90;99.90;;;;;;5075212;28;20060;-74
2021/03/08 05:56:51;;;;;;;39.05;14.02;;;3.90;99.90;;;;;;5008331;28;20032;-74
2021/03/08 05:59:23;;;;;;;33.67;13.50;;;4.00;99.90;;;;;;5059074;28;20129;-74
2021/03/08 06:02:14;;;;;;;34.20;13.02;;;4.00;99.90;;;;;;5076331;28;20032;-74
2021/03/08 06:05:07;;;;;;;30.77;11.80;;;4.00;99.90;;;;;;5081389;28;20028;-74
2021/03/08 06:08:16;;;;;;;36.33;14.00;;;4.00;99.90;;;;;;5096525;28;20039;-74
2021/03/08 06:10:47;;;;;;;30.27;12.23;;;4.00;99.90;;;;;;5093674;28;20036;-74
2021/03/08 06:13:19;;;;;;;37.92;14.88;;;4.00;99.90;;;;;;5092905;28;20081;-74
2021/03/08 06:15:53;;;;;;;32.65;12.93;;;4.10;99.90;;;;;;5094893;28;20083;-74
2021/03/08 06:18:21;;;;;;;32.78;13.23;;;4.10;99.90;;;;;;5095030;28;20020;-74
2021/03/08 06:20:49;;;;;;;34.20;14.25;;;4.10;99.90;;;;;;5084309;28;20033;-74
2021/03/08 06:23:17;;;;;;;36.33;14.00;;;4.10;99.90;;;;;;5082111;28;20024;-73
2021/03/08 06:25:43;;;;;;;39.85;14.15;;;4.10;99.90;;;;;;5094449;28;20024;-73
2021/03/08 06:28:09;;;;;;;36.67;14.10;;;4.10;99.90;;;;;;5097162;28;20031;-73
2021/03/08 06:30:35;;;;;;;33.65;13.88;;;4.10;99.90;;;;;;5095937;28;20047;-73
2021/03/08 06:33:01;;;;;;;35.42;13.25;;;4.10;99.90;;;;;;5093629;28;20028;-74
2021/03/08 06:35:27;;;;;;;38.30;13.55;;;4.10;99.90;;;;;;5074667;28;20024;-74
2021/03/08 06:40:20;;;;;;;35.28;13.63;;;4.20;99.90;;;;;;5035245;28;20470;-76
2021/03/08 06:42:47;;;;;;;40.17;15.07;;;4.20;99.90;;;;;;5036618;28;20029;-74
2021/03/08 06:45:13;;;;;;;36.80;14.10;;;4.30;99.90;;;;;;5035939;28;20085;-74
2021/03/08 06:47:38;;;;;;;36.67;13.85;;;4.30;99.90;;;;;;5036081;28;20022;-74
2021/03/08 06:50:05;;;;;;;34.42;12.93;;;4.30;99.90;;;;;;5035987;28;20048;-75
2021/03/08 06:52:43;;;;;;;36.38;14.18;;;4.30;99.90;;;;;;5035726;28;20425;-75
2021/03/08 06:55:10;;;;;;;38.88;14.35;;;4.30;99.90;;;;;;5036525;28;20527;-75
2021/03/08 06:57:37;;;;;;;38.40;13.95;;;4.40;99.90;;;;;;5035915;28;20033;-75
2021/03/08 07:00:07;;;;;;;32.78;13.43;;;4.30;99.90;;;;;;5035567;28;20108;-75
2021/03/08 07:02:44;;;;;;;35.33;13.88;;;4.40;99.90;;;;;;5017095;28;20036;-75
2021/03/08 07:05:20;;;;;;;35.90;14.23;;;4.40;99.90;;;;;;5016534;28;20029;-75
2021/03/08 07:07:58;;;;;;;35.75;14.23;;;4.50;99.90;;;;;;5035699;28;20468;-74
2021/03/08 07:10:40;;;;;;;42.25;15.85;;;4.50;99.90;;;;;;5035450;28;20018;-75
2021/03/08 07:13:08;;;;;;;33.78;12.70;;;4.90;99.90;;;;;;5035816;28;20107;-75
2021/03/08 07:15:56;;;;;;;41.83;13.80;;;4.60;99.90;;;;;;5035107;28;21253;-75
2021/03/08 07:18:23;;;;;;;39.07;13.93;;;4.60;99.90;;;;;;5034487;28;20112;-75
2021/03/08 07:20:52;;;;;;;35.05;13.90;;;4.60;99.90;;;;;;5035234;28;20547;-75
2021/03/08 07:23:27;;;;;;;38.35;13.68;;;4.70;99.90;;;;;;5035157;28;20079;-75
2021/03/08 07:26:06;;;;;;;36.08;13.27;;;4.70;99.90;;;;;;5034410;28;20090;-74
2021/03/08 07:28:31;;;;;;;37.60;14.45;;;4.70;99.90;;;;;;5016806;28;20443;-73
2021/03/08 07:30:57;;;;;;;33.50;13.30;;;4.80;99.90;;;;;;5017136;28;20074;-73
2021/03/08 07:33:24;;;;;;;33.00;13.85;;;4.80;99.90;;;;;;5017386;28;20048;-74
2021/03/08 07:35:52;;;;;;;36.05;13.43;;;4.90;99.90;;;;;;5035029;28;20030;-74
2021/03/08 07:38:33;;;;;;;34.50;13.63;;;4.90;99.90;;;;;;5035083;28;20026;-74
2021/03/08 07:41:15;;;;;;;33.35;13.20;;;5.00;99.90;;;;;;5017285;28;20430;-74
2021/03/08 07:43:42;;;;;;;40.40;14.00;;;5.00;99.90;;;;;;5035126;28;20021;-74
2021/03/08 07:46:25;;;;;;;34.42;13.57;;;5.10;99.90;;;;;;5016232;28;20022;-73
2021/03/08 07:48:51;;;;;;;31.85;13.30;;;5.20;99.90;;;;;;5016979;28;20442;-74
2021/03/08 07:51:16;;;;;;;30.67;13.07;;;5.20;99.90;;;;;;5034931;28;20021;-74
2021/03/08 07:53:42;;;;;;;33.22;12.10;;;5.20;99.90;;;;;;5017134;28;20033;-74
2021/03/08 07:56:09;;;;;;;30.83;11.73;;;5.30;99.90;;;;;;5034533;28;20022;-74
2021/03/08 07:58:36;;;;;;;38.70;13.50;;;5.40;99.90;;;;;;5033775;28;20041;-74
2021/03/08 08:01:09;;;;;;;33.08;13.00;;;5.40;99.90;;;;;;5035082;28;20392;-74
2021/03/08 08:03:36;;;;;;;33.45;12.88;;;5.50;99.90;;;;;;5016312;28;20037;-74
2021/03/08 08:06:05;;;;;;;31.80;12.60;;;5.50;99.90;;;;;;5034427;28;20522;-74
2021/03/08 08:08:33;;;;;;;30.98;11.63;;;5.60;99.90;;;;;;5016394;28;20030;-74
2021/03/08 08:11:00;;;;;;;33.50;13.35;;;5.60;99.90;;;;;;5034155;28;20455;-74
2021/03/08 08:16:21;;;;;;;33.63;13.10;;;5.70;99.90;;;;;;5052655;28;20048;-74
2021/03/08 08:18:49;;;;;;;32.85;11.80;;;5.80;99.90;;;;;;5036324;28;20017;-74
2021/03/08 08:21:19;;;;;;;31.88;12.30;;;5.80;99.90;;;;;;5053368;28;20035;-74
2021/03/08 08:23:47;;;;;;;32.85;12.27;;;5.80;99.90;;;;;;5035556;28;20543;-74
2021/03/08 08:26:16;;;;;;;32.20;11.88;;;5.80;99.90;;;;;;5035365;28;20443;-75
2021/03/08 08:28:45;;;;;;;30.98;11.57;;;5.90;99.90;;;;;;5029197;28;20037;-74
2021/03/08 08:31:11;;;;;;;28.08;11.95;;;6.00;99.90;;;;;;5036100;28;20029;-74
2021/03/08 08:33:36;;;;;;;26.70;11.55;;;6.00;99.90;;;;;;5034856;28;20395;-74
2021/03/08 08:36:27;;;;;;;35.05;12.88;;;6.00;99.90;;;;;;5052266;28;20033;-74
2021/03/08 08:38:53;;;;;;;37.45;12.65;;;6.10;99.90;;;;;;5035748;28;20036;-74
2021/03/08 08:41:27;;;;;;;29.40;12.13;;;6.10;99.90;;;;;;5053823;28;20025;-75
2021/03/08 08:44:08;;;;;;;33.45;12.07;;;6.20;99.90;;;;;;5035773;28;20483;-74
2021/03/08 08:46:38;;;;;;;27.30;10.68;;;6.30;99.90;;;;;;5053780;28;20120;-74
2021/03/08 08:49:12;;;;;;;25.30;10.38;;;6.30;99.90;;;;;;5053813;28;20368;-73
2021/03/08 08:51:45;;;;;;;27.80;10.38;;;6.30;99.60;;;;;;5053427;28;20491;-74
2021/03/08 08:54:10;;;;;;;24.92;11.00;;;6.40;99.20;;;;;;5053664;28;20070;-75
2021/03/08 08:56:48;;;;;;;30.98;11.20;;;6.50;98.70;;;;;;5035168;28;20120;-74
2021/03/08 08:59:21;;;;;;;28.27;11.63;;;6.50;99.60;;;;;;5035882;28;20025;-74
2021/03/08 09:01:47;;;;;;;30.85;11.38;;;6.50;99.90;;;;;;5053433;28;20100;-74
2021/03/08 09:04:16;;;;;;;31.63;12.00;;;6.60;99.30;;;;;;5053692;28;20044;-73
2021/03/08 09:06:43;;;;;;;24.58;8.65;;;6.70;98.80;;;;;;5036026;28;20032;-73
2021/03/08 09:09:09;;;;;;;31.55;11.70;;;6.80;98.20;;;;;;5035481;28;20037;-74
2021/03/08 09:11:45;;;;;;;26.52;9.95;;;6.90;97.30;;;;;;5053296;28;20522;-74
2021/03/08 09:14:46;;;;;;;27.98;11.15;;;7.00;96.90;;;;;;5053243;28;20029;-73
2021/03/08 09:17:19;;;;;;;29.20;10.02;;;7.10;96.60;;;;;;5052767;28;20037;-74
2021/03/08 09:19:50;;;;;;;27.45;9.77;;;7.20;96.80;;;;;;5053599;28;20092;-74
2021/03/08 09:22:25;;;;;;;28.15;10.23;;;7.20;94.90;;;;;;5035595;28;20139;-74
2021/03/08 09:24:52;;;;;;;27.05;10.20;;;7.20;95.30;;;;;;5053139;28;20025;-74
2021/03/08 09:27:21;;;;;;;29.13;10.50;;;7.20;94.10;;;;;;5076144;22;20440;-74
2021/03/08 09:29:50;;;;;;;27.05;9.73;;;6.90;95.30;;;;;;5076127;28;20028;-74
2021/03/08 09:32:16;;;;;;;26.23;9.32;;;7.10;94.90;;;;;;5077887;28;20374;-74
2021/03/08 09:34:42;;;;;;;25.98;10.40;;;7.20;94.90;;;;;;5077902;28;20151;-74
2021/03/08 09:37:08;;;;;;;24.60;9.68;;;7.20;95.10;;;;;;5077171;28;20115;-75
2021/03/08 09:39:48;;;;;;;28.15;10.43;;;7.20;95.30;;;;;;5075778;28;20025;-75
2021/03/08 09:42:14;;;;;;;22.42;10.15;;;7.20;95.20;;;;;;5084961;22;20132;-75
2021/03/08 09:44:43;;;;;;;26.05;9.65;;;7.30;95.30;;;;;;5057274;28;20048;-74
2021/03/08 09:47:09;;;;;;;25.85;9.32;;;7.40;94.10;;;;;;5055927;28;20053;-74
2021/03/08 09:49:52;;;;;;;23.92;9.43;;;7.40;94.10;;;;;;5057058;28;20028;-76
2021/03/08 09:52:42;;;;;;;23.98;9.88;;;7.40;95.10;;;;;;5057015;28;20176;-75
2021/03/08 09:55:10;;;;;;;28.45;10.23;;;7.50;93.60;;;;;;5056877;28;20029;-74
2021/03/08 09:57:40;;;;;;;22.65;8.98;;;7.50;94.00;;;;;;5056438;28;20059;-74
2021/03/08 10:00:15;;;;;;;20.13;8.30;;;7.60;92.60;;;;;;5055478;28;20021;-75
2021/03/08 10:02:41;;;;;;;23.15;8.55;;;7.50;91.70;;;;;;5055491;28;20048;-74
2021/03/08 10:05:11;;;;;;;19.30;8.55;;;7.40;93.10;;;;;;5056646;28;20426;-74
2021/03/08 10:07:54;;;;;;;21.08;8.52;;;7.50;92.20;;;;;;5083106;22;20040;-75
2021/03/08 10:10:21;;;;;;;21.95;8.98;;;7.60;91.20;;;;;;5077938;22;20048;-74
2021/03/08 10:13:02;;;;;;;23.85;8.85;;;7.80;91.40;;;;;;5056486;28;20013;-74
2021/03/08 10:15:38;;;;;;;22.35;9.05;;;7.80;92.10;;;;;;5055305;28;20425;-74
2021/03/08 10:18:06;;;;;;;22.35;9.32;;;8.00;91.70;;;;;;5055275;28;20403;-75
2021/03/08 10:20:32;;;;;;;21.80;9.05;;;8.10;91.00;;;;;;5057364;28;20090;-74
2021/03/08 10:22:58;;;;;;;24.80;9.85;;;8.30;89.40;;;;;;5071974;28;20025;-75
2021/03/08 10:25:27;;;;;;;18.75;8.15;;;8.40;88.30;;;;;;5055252;28;20024;-75
2021/03/08 10:27:58;;;;;;;25.55;9.63;;;8.50;89.40;;;;;;5072070;28;20078;-74
2021/03/08 10:30:26;;;;;;;22.20;9.60;;;8.70;87.50;;;;;;5056433;28;20025;-75
2021/03/08 10:32:56;;;;;;;22.55;7.75;;;8.70;88.30;;;;;;5056357;28;20029;-74
2021/03/08 10:35:25;;;;;;;24.17;9.00;;;8.80;86.10;;;;;;5056175;28;20075;-75
2021/03/08 10:37:51;;;;;;;24.60;9.32;;;8.80;85.00;;;;;;5094816;22;20044;-74
2021/03/08 10:40:21;;;;;;;27.05;8.70;;;9.00;83.40;;;;;;5091808;22;20106;-74
2021/03/08 10:42:47;;;;;;;21.63;9.13;;;9.10;85.80;;;;;;5055949;28;20100;-74
2021/03/08 10:45:16;;;;;;;29.02;10.38;;;9.30;86.80;;;;;;5056105;28;20582;-74
2021/03/08 10:47:42;;;;;;;23.10;8.00;;;9.40;82.10;;;;;;5056097;28;20021;-74
2021/03/08 10:50:08;;;;;;;18.92;7.35;;;9.50;80.00;;;;;;5056673;28;20017;-74
2021/03/08 10:52:33;;;;;;;20.65;8.40;;;9.50;79.80;;;;;;5054648;28;20062;-74
2021/03/08 10:54:59;;;;;;;23.30;8.48;;;9.50;78.70;;;;;;5055917;28;20387;-74
2021/03/08 10:57:27;;;;;;;19.33;7.38;;;9.60;80.20;;;;;;5054815;28;20427;-74
2021/03/08 10:59:54;;;;;;;22.00;7.80;;;9.60;77.60;;;;;;5056089;28;20468;-74
2021/03/08 11:02:21;;;;;;;17.17;6.82;;;9.60;77.20;;;;;;5055836;28;20020;-74
2021/03/08 11:04:49;;;;;;;15.55;6.35;;;9.30;75.50;;;;;;5054488;28;20039;-74
2021/03/08 11:07:27;;;;;;;17.50;7.33;;;9.40;76.40;;;;;;5056286;28;20025;-73
2021/03/08 11:09:53;;;;;;;16.75;6.78;;;9.50;74.80;;;;;;5054506;28;20339;-74
2021/03/08 11:12:20;;;;;;;18.17;7.70;;;9.70;75.80;;;;;;5054354;28;20052;-74
2021/03/08 11:14:56;;;;;;;18.38;7.05;;;9.90;76.30;;;;;;5055492;28;20483;-74
2021/03/08 11:17:39;;;;;;;16.13;7.57;;;10.10;74.30;;;;;;5086010;22;20423;-74
2021/03/08 11:20:09;;;;;;;16.88;7.25;;;10.30;74.30;;;;;;5074476;28;20078;-75
2021/03/08 11:22:49;;;;;;;14.93;7.05;;;10.60;72.30;;;;;;5075358;28;20016;-74
2021/03/08 11:25:33;;;;;;;18.33;6.65;;;10.70;71.50;;;;;;5075071;28;20036;-74
2021/03/08 11:28:00;;;;;;;17.15;7.85;;;10.80;68.30;;;;;;5081268;22;20055;-74
2021/03/08 11:30:27;;;;;;;20.10;7.53;;;10.90;69.90;;;;;;5055544;28;20436;-76
2021/03/08 11:32:55;;;;;;;16.33;6.80;;;11.00;68.60;;;;;;5037052;28;20025;-75
2021/03/08 11:35:32;;;;;;;17.95;6.57;;;11.00;69.30;;;;;;5070197;23;20047;-75
2021/03/08 11:38:09;;;;;;;17.27;7.70;;;11.00;68.40;;;;;;5093624;28;20119;-75
2021/03/08 11:40:40;;;;;;;20.77;6.55;;;11.00;69.10;;;;;;5095328;28;20030;-74
2021/03/08 11:43:06;;;;;;;15.73;7.35;;;10.90;68.00;;;;;;5101037;22;20067;-75
2021/03/08 11:45:31;;;;;;;16.33;7.22;;;10.90;66.30;;;;;;5090114;22;20048;-75
2021/03/08 11:48:02;;;;;;;17.63;7.25;;;10.80;67.40;;;;;;5056507;28;20032;-75
2021/03/08 11:50:31;;;;;;;18.88;7.95;;;10.70;67.70;;;;;;5074089;28;20023;-74
2021/03/08 11:52:56;;;;;;;;;;;10.80;68.70;;;;;;5056869;28;20103;-75
2021/03/08 11:55:22;;;;;;;20.83;6.57;;;10.80;68.90;;;;;;5056304;28;19940;-74
2021/03/08 11:57:49;;;;;;;15.30;6.45;;;10.80;69.60;;;;;;5056612;28;20028;-74
2021/03/08 12:00:18;;;;;;;15.13;6.15;;;10.60;68.00;;;;;;5074836;28;20017;-74
2021/03/08 12:02:44;;;;;;;23.63;7.18;;;10.60;66.90;;;;;;5056357;28;20103;-74
2021/03/08 12:05:11;;;;;;;19.00;6.85;;;10.40;67.90;;;;;;5074245;28;20426;-74
2021/03/08 12:07:37;;;;;;;16.98;7.32;;;10.40;66.80;;;;;;5056300;28;20021;-73
2021/03/08 12:10:05;;;;;;;19.58;7.22;;;10.40;66.70;;;;;;5056309;28;20483;-74
2021/03/08 12:12:30;;;;;;;15.32;6.22;;;10.70;68.70;;;;;;5074108;28;20049;-75
2021/03/08 12:14:56;;;;;;;13.85;5.88;;;10.90;66.30;;;;;;5074010;28;20097;-74
2021/03/08 12:17:22;;;;;;;16.50;7.00;;;11.10;66.00;;;;;;5073911;28;20525;-75
2021/03/08 12:19:48;;;;;;;17.73;7.03;;;11.30;66.40;;;;;;5074434;28;20025;-74
2021/03/08 12:22:13;;;;;;;15.75;7.55;;;11.30;63.90;;;;;;5056204;28;20013;-74
2021/03/08 12:24:39;;;;;;;22.05;8.35;;;11.20;63.30;;;;;;5073920;28;20021;-75
2021/03/08 12:27:05;;;;;;;16.73;7.68;;;11.10;63.40;;;;;;5073751;28;20032;-74
2021/03/08 12:29:30;;;;;;;19.48;7.25;;;11.00;63.60;;;;;;5073578;28;20021;-73
2021/03/08 12:31:56;;;;;;;21.30;8.25;;;10.80;65.00;;;;;;5074000;28;20048;-74
2021/03/08 12:34:21;;;;;;;21.10;7.43;;;10.80;65.30;;;;;;5073672;28;20035;-74
2021/03/08 12:36:47;;;;;;;15.02;7.13;;;10.90;65.30;;;;;;5073426;28;20024;-74
2021/03/08 12:39:13;;;;;;;15.32;6.97;;;10.90;65.00;;;;;;5053760;28;20368;-74
2021/03/08 12:41:38;;;;;;;15.02;6.45;;;10.90;63.40;;;;;;5055174;28;20500;-74
2021/03/08 12:44:05;;;;;;;18.48;6.68;;;11.00;63.00;;;;;;5067915;28;20054;-74
2021/03/08 12:46:31;;;;;;;15.05;6.43;;;11.00;62.60;;;;;;5060119;28;20044;-73
2021/03/08 12:48:57;;;;;;;15.45;5.90;;;11.10;62.40;;;;;;5068005;28;20033;-73
2021/03/08 12:51:23;;;;;;;18.45;6.70;;;10.90;63.30;;;;;;5054951;28;20074;-74
2021/03/08 12:53:48;;;;;;;12.65;5.55;;;10.90;63.80;;;;;;5063444;28;20399;-74
2021/03/08 12:56:15;;;;;;;15.73;6.15;;;10.90;64.60;;;;;;5066860;28;20120;-73
2021/03/08 12:58:41;;;;;;;13.65;5.78;;;11.00;63.80;;;;;;5054955;28;20017;-74
2021/03/08 13:01:07;;;;;;;11.38;4.68;;;10.80;62.40;;;;;;5072530;28;20020;-74